• Join FlightAware (Why Join?)
  • Login
  • US Flag 
Rudolph Flight #1: Scheduled 
10:24PM EST


 

Airport Tracker/Info


-or-


 

Live Flight TrackerFlight Track Log ✈ ABX445 ✈ 06-May-2013 ✈ TJSJ / SJU - KCVG

Flight Track Log - Related Links

Times and Time Zones

All times are in EDT time to prevent confusion due to time zone crossing. See the ABX445 flight status page for this flight to view local times or setup timezone preferences in your user account.

Time Position Orientation Groundspeed Altitude Reporting Facility
EDT Latitude Longitude Course Direction KTS MPH feet Rate Location/Type
09:41PM 18.4333 -65.9667 360° North 160 184 1,300  Level San Juan Center
09:42PM 18.4667 -65.9667 360° North 220 253 3,000 1,980 Climbing San Juan Center
09:43PM 18.5333 -66.0167 325° Northwest 260 299 5,300 2,640 Climbing San Juan Center
09:44PM 18.5833 -66.0667 317° Northwest 270 311 8,400 2,520 Climbing San Juan Center
09:45PM 18.6500 -66.1167 325° Northwest 290 334 10,500 2,040 Climbing San Juan Center
09:46PM 18.7333 -66.1833 323° Northwest 350 403 12,500 2,280 Climbing San Juan Center
09:47PM 18.8000 -66.2500 317° Northwest 370 426 15,200 2,460 Climbing San Juan Center
09:49PM 18.9416 -66.3524 317° Northwest  Level Estimated
09:49PM 18.9667 -66.4000 317° Northwest 390 449 20,000  Level San Juan Center
09:50PM 19.0500 -66.4833 317° Northwest 410 472 22,000 1,980 Climbing San Juan Center
09:51PM 19.1500 -66.5667 322° Northwest 420 483 24,000 1,860 Climbing San Juan Center
09:52PM 19.2167 -66.6500 310° West 410 472 25,800 1,740 Climbing San Juan Center
09:53PM 19.3167 -66.7333 322° Northwest 440 506 27,600 1,560 Climbing San Juan Center
09:54PM 19.4167 -66.8167 322° Northwest 450 518 29,000 1,440 Climbing San Juan Center
09:55PM 19.5000 -66.9000 317° Northwest 460 529 30,500 1,620 Climbing San Juan Center
09:57PM 19.7000 -67.0833 319° Northwest 450 518 33,900 1,620 Climbing San Juan Center
09:58PM 19.8000 -67.1667 322° Northwest 450 518 35,500 1,560 Climbing San Juan Center
09:59PM 19.8833 -67.2500 317° Northwest 450 518 37,100 780 Climbing San Juan Center
10:01PM 20.0833 -67.4333 319° Northwest 440 506 38,000 240 Climbing San Juan Center
10:02PM 20.1667 -67.5167 317° Northwest 440 506 38,000  Level San Juan Center
10:03PM 20.2667 -67.6000 322° Northwest 440 506 38,000  Level San Juan Center
10:04PM 20.3864 -67.7111 319° Northwest 446 513 38,000  Level Miami Center
10:05PM 20.4728 -67.8003 316° Northwest 453 521 38,000  Level Miami Center
10:06PM 20.5756 -67.8839 323° Northwest 447 514 38,000  Level Miami Center
10:07PM 20.6681 -67.9708 319° Northwest 447 514 38,000  Level Miami Center
10:08PM 20.7525 -68.0669 313° West 447 514 38,000  Level Miami Center
10:10PM 20.8278 -68.1914 312° West  Level FlightAware Approximate
10:10PM 20.9156 -68.2647 312° West 452 520 38,000  Level Miami Center
10:11PM 21.0003 -68.3636 313° West 452 520 38,000  Level Miami Center
10:12PM 21.0825 -68.4606 312° West 446 513 38,000  Level Miami Center
10:13PM 21.1650 -68.5597 312° West 446 513 38,000  Level Miami Center
10:15PM 21.2610 -68.6760 312° West  Level FlightAware Approximate
10:15PM 21.3275 -68.7564 312° West 446 513 38,000  Level Miami Center
10:16PM 21.4139 -68.8556 313° West 446 513 38,000  Level Miami Center
10:17PM 21.4939 -68.9511 312° West 446 513 38,000  Level Miami Center
10:18PM 21.5697 -69.0492 310° West 438 504 38,000  Level Miami Center
10:19PM 21.6517 -69.1467 312° West 438 504 38,000  Level Miami Center
10:20PM 21.7314 -69.2403 313° West 438 504 38,000  Level Miami Center
10:21PM 21.8028 -69.3344 309° West 438 504 38,000  Level Miami Center
10:22PM 21.8847 -69.4325 312° West 430 495 38,000  Level Miami Center
10:23PM 21.9644 -69.5308 311° West 435 501 38,000  Level Miami Center
10:24PM 22.0419 -69.6225 312° West 435 501 38,000  Level Miami Center
10:25PM 22.1214 -69.7189 312° West 441 507 38,000  Level Miami Center
10:26PM 22.2011 -69.8175 311° West 436 502 38,000  Level Miami Center
10:27PM 22.2806 -69.9119 312° West 436 502 38,000  Level Miami Center
10:28PM 22.3558 -70.0067 311° West 436 502 38,000  Level Miami Center
10:29PM 22.4331 -70.1011 312° West 436 502 38,000  Level Miami Center
10:30PM 22.5103 -70.1983 311° West 430 495 38,000  Level Miami Center
10:31PM 22.5872 -70.2886 313° West 425 489 38,000  Level Miami Center
10:33PM 22.6826 -70.4071 311° West  Level FlightAware Approximate
10:33PM 22.7394 -70.4789 311° West 420 483 38,000  Level Miami Center
10:35PM 22.8309 -70.5928 311° West  Level FlightAware Approximate
10:35PM 22.8911 -70.6672 311° West 415 478 38,000  Level Miami Center
10:36PM 22.9681 -70.7650 311° West 415 478 38,000  Level Miami Center
10:38PM 23.1242 -70.9606 311° West 423 487 38,000  Level Miami Center
10:39PM 23.1989 -71.0567 310° West 423 487 38,000  Level Miami Center
10:40PM 23.2775 -71.1500 313° West 423 487 38,000  Level Miami Center
10:41PM 23.3544 -71.2483 310° West 416 479 38,000  Level Miami Center
10:42PM 23.4308 -71.3422 312° West 416 479 38,000  Level Miami Center
10:43PM 23.5094 -71.4361 312° West 416 479 38,000  Level Miami Center
10:44PM 23.5842 -71.5372 309° West 416 479 38,000  Level Miami Center
10:45PM 23.6606 -71.6361 310° West 416 479 38,000  Level Miami Center
10:46PM 23.7369 -71.7303 312° West 416 479 38,000  Level Miami Center
10:47PM 23.8133 -71.8294 310° West 416 479 38,000  Level Miami Center
10:48PM 23.8875 -71.9217 311° West 416 479 38,000  Level Miami Center
10:49PM 23.9656 -72.0142 313° West 416 479 38,000  Level Miami Center
10:50PM 24.0397 -72.1092 311° West 416 479 38,000  Level Miami Center
10:51PM 24.1119 -72.2108 308° West 416 479 38,000  Level Miami Center
10:52PM 24.1881 -72.3106 310° West 416 479 38,000  Level Miami Center
10:53PM 24.2619 -72.4081 310° West 416 479 38,000  Level Miami Center
10:54PM 24.3358 -72.4989 312° West 416 479 38,000  Level Miami Center
10:56PM 24.4311 -72.6192 310° West  Level FlightAware Approximate
10:57PM 24.5464 -72.7814 310° West 416 479 38,000  Level Miami Center
10:58PM 24.6222 -72.8794 310° West 421 484 38,000  Level Miami Center
10:59PM 24.7000 -72.9800 310° West 421 484 38,000  Level Miami Center
11:00PM 24.7758 -73.0806 310° West 420 483 38,000  Level Miami Center
11:01PM 24.8450 -73.1744 309° West 415 478 38,000  Level Miami Center
11:02PM 24.9206 -73.2706 311° West 415 478 38,000  Level Miami Center
11:03PM 24.9574 -73.3168 310° West  Level FlightAware Approximate
11:03PM 24.9917 -73.3672 309° West 415 478 38,000  Level Miami Center
11:04PM 25.0628 -73.4636 309° West 415 478 38,000  Level Miami Center
11:05PM 25.1339 -73.5581 310° West 415 478 38,000  Level Miami Center
11:06PM 25.2136 -73.6617 310° West 420 483 38,000  Level Miami Center
11:07PM 25.2825 -73.7539 310° West 414 476 38,000  Level Miami Center
11:08PM 25.3575 -73.8556 309° West 414 476 38,000  Level Miami Center
11:09PM 25.4286 -73.9528 309° West 414 476 38,000  Level Miami Center
11:10PM 25.4994 -74.0475 310° West 414 476 38,000  Level Miami Center
11:11PM 25.5722 -74.1450 310° West 414 476 38,000  Level Miami Center
11:12PM 25.6428 -74.2403 309° West 414 476 38,000  Level Miami Center
11:13PM 25.7156 -74.3400 309° West 414 476 38,000  Level Miami Center
11:14PM 25.7969 -74.4469 310° West 415 478 38,000  Level Miami Center
11:15PM 25.8694 -74.5400 311° West 416 479 38,000  Level Miami Center
11:16PM 25.9356 -74.6358 308° West 411 473 38,000  Level Miami Center
11:18PM 26.0354 -74.7500 314° West  Level FlightAware Approximate
11:18PM 26.0889 -74.8294 314° West 410 472 38,000  Level Miami Center
11:19PM 26.1508 -74.9233 306° West 402 463 38,000  Level Miami Center
11:20PM 26.2083 -75.0106 306° West 392 451 38,000  Level Miami Center
11:21PM 26.2828 -75.1067 311° West 387 445 38,000  Level Miami Center
11:22PM 26.3547 -75.2031 310° West 392 451 38,000  Level Miami Center
11:23PM 26.4247 -75.2972 310° West 392 451 38,000  Level Miami Center
11:24PM 26.5011 -75.3889 313° West 398 458 38,000  Level Miami Center
11:25PM 26.5814 -75.4833 314° West 404 465 38,000  Level Miami Center
11:26PM 26.6553 -75.5753 312° West 408 470 38,000  Level Miami Center
11:27PM 26.7292 -75.6700 311° West 408 470 38,000  Level Miami Center
11:28PM 26.8031 -75.7692 310° West 406 467 38,000  Level Miami Center
11:29PM 26.8728 -75.8617 310° West 401 461 38,000  Level Miami Center
11:30PM 26.9486 -75.9658 309° West 411 473 38,000  Level Miami Center
11:31PM 27.0161 -76.0611 309° West 404 465 38,000  Level Miami Center
11:32PM 27.0856 -76.1517 311° West 403 464 38,000  Level Miami Center
11:33PM 27.1547 -76.2539 307° West 403 464 38,000  Level Miami Center
11:34PM 27.2242 -76.3517 309° West 403 464 38,000  Level Miami Center
11:35PM 27.2892 -76.4425 309° West 398 458 38,000  Level Miami Center
11:36PM 27.3583 -76.5475 307° West 398 458 38,000  Level Miami Center
11:37PM 27.4275 -76.6386 311° West 400 460 38,000  Level Miami Center
11:38PM 27.4967 -76.7344 309° West 393 452 38,000  Level Miami Center
11:39PM 27.5633 -76.8375 306° West 393 452 38,000  Level Miami Center
11:40PM 27.6344 -76.9358 309° West 398 458 38,000  Level Miami Center
11:41PM 27.7011 -77.0344 307° West 399 459 38,000  Level Miami Center
11:42PM 27.7700 -77.1333 308° West 393 452 38,000  Level Miami Center
11:43PM 27.8386 -77.2275 310° West 393 452 38,000  Level Miami Center
11:44PM 27.9053 -77.3144 311° West 399 459 38,000  Level Miami Center
11:45PM 27.9864 -77.4231 310° West 408 470 38,000  Level Miami Center
11:46PM 28.0339 -77.5008 305° West 408 470 38,000 -60 Level Miami Center
11:47PM 28.1189 -77.6167 310° West 398 458 37,900  Descending Miami Center
11:48PM 28.2253 -77.6811 332° Northwest 405 466 38,000  Climbing Miami Center
11:49PM 28.3356 -77.7361 336° Northwest 421 484 38,000  Level Miami Center
11:50PM 28.4478 -77.7914 337° Northwest 426 490 38,000  Level Miami Center
11:51PM 28.5603 -77.8467 337° Northwest 434 499 38,000  Level Miami Center
11:52PM 28.6747 -77.9019 337° Northwest 442 509 38,000  Level Miami Center
11:53PM 28.7911 -77.9578 337° Northwest 437 503 38,000  Level Miami Center
11:54PM 28.9053 -78.0133 337° Northwest 442 509 38,000  Level Miami Center
11:55PM 29.0133 -78.0692 336° Northwest 442 509 38,000  Level Miami Center
11:56PM 29.1194 -78.1200 337° Northwest 442 509 38,000 480 Level Miami Center
11:57PM 29.2400 -78.1808 336° Northwest 442 509 39,000 900 Climbing Miami Center
11:58PM 29.3542 -78.2347 338° Northwest 446 513 39,900 480 Climbing Miami Center
11:59PM 29.4744 -78.2981 335° Northwest 448 516 40,000  Climbing Miami Center
12:01AM 29.6692 -78.3872 338° Northwest 378 435 40,000  Level Jacksonville Center
12:02AM 29.7756 -78.4422 336° Northwest 439 505 40,000  Level Jacksonville Center
12:03AM 29.8883 -78.5017 335° Northwest 439 505 40,000  Level Jacksonville Center
12:04AM 30.0031 -78.5589 337° Northwest 439 505 40,000  Level Jacksonville Center
12:05AM 30.1111 -78.6142 336° Northwest 445 512 40,000  Level Jacksonville Center
12:06AM 30.2386 -78.6806 336° Northwest 447 514 40,000  Level Jacksonville Center
12:07AM 30.3492 -78.7406 335° Northwest 436 502 40,000  Level Jacksonville Center
12:08AM 30.4681 -78.7981 337° Northwest 453 521 40,000  Level Jacksonville Center
12:09AM 30.5806 -78.8583 335° Northwest 449 517 40,000  Level Jacksonville Center
12:10AM 30.6950 -78.9186 336° Northwest 442 509 40,000  Level Jacksonville Center
12:11AM 30.8097 -78.9769 336° Northwest 455 524 40,000  Level Jacksonville Center
12:12AM 30.9264 -79.0375 336° Northwest 449 517 40,000  Level Jacksonville Center
12:13AM 31.0431 -79.1006 335° Northwest 449 517 40,000 -60 Level Jacksonville Center
12:14AM 31.1594 -79.1589 337° Northwest 449 517 39,900  Descending Jacksonville Center
12:15AM 31.2761 -79.2200 336° Northwest 449 517 40,000  Climbing Jacksonville Center
12:16AM 31.3867 -79.2836 334° Northwest 449 517 40,000  Level Jacksonville Center
12:17AM 31.5031 -79.3425 337° Northwest 449 517 40,000  Level Jacksonville Center
12:18AM 31.6175 -79.4017 336° Northwest 449 517 40,000  Level Jacksonville Center
12:19AM 31.7319 -79.4631 335° Northwest 449 517 40,000  Level Jacksonville Center
12:20AM 31.8442 -79.5250 335° Northwest 449 517 40,000 -60 Level Jacksonville Center
12:21AM 31.9606 -79.5844 337° Northwest 449 517 39,900  Descending Jacksonville Center
12:22AM 32.0747 -79.6442 336° Northwest 449 517 40,000  Climbing Jacksonville Center
12:23AM 32.1892 -79.7064 335° Northwest 449 517 40,000  Level Jacksonville Center
12:24AM 32.3033 -79.7686 335° Northwest 449 517 40,000  Level Jacksonville Center
12:25AM 32.4175 -79.8311 335° Northwest 449 517 40,000  Level Jacksonville Center
12:26AM 32.5339 -79.8939 336° Northwest 449 517 40,000  Level Jacksonville Center
12:27AM 32.6503 -79.9567 336° Northwest 449 517 40,000  Level Jacksonville Center
12:28AM 32.7686 -80.0194 336° Northwest 449 517 40,000  Level Jacksonville Center
12:29AM 32.8828 -80.0825 335° Northwest 449 517 40,000  Level Jacksonville Center
12:30AM 33.0011 -80.1483 335° Northwest 465 535 40,000  Level Jacksonville Center
12:32AM 33.1656 -80.2372 336° Northwest 460 529 40,000  Level Atlanta Center
12:33AM 33.2844 -80.3014 336° Northwest 465 535 40,000  Level Atlanta Center
12:34AM 33.3969 -80.3664 334° Northwest 465 535 40,000  Level Atlanta Center
12:35AM 33.5139 -80.4311 335° Northwest 460 529 40,000  Level Atlanta Center
12:36AM 33.6306 -80.4961 335° Northwest 460 529 40,000  Level Atlanta Center
12:37AM 33.7556 -80.5633 336° Northwest 460 529 40,000  Level Atlanta Center
12:38AM 33.8658 -80.6289 334° Northwest 460 529 40,000  Level Atlanta Center
12:39AM 33.9844 -80.6944 335° Northwest 460 529 40,000  Level Atlanta Center
12:40AM 34.1053 -80.7647 334° Northwest 460 529 40,000  Level Atlanta Center
12:41AM 34.2219 -80.8281 336° Northwest 460 529 40,000  Level Atlanta Center
12:42AM 34.3386 -80.8992 333° Northwest 460 529 40,000  Level Atlanta Center
12:43AM 34.4719 -80.9775 334° Northwest 478 550 40,000  Level Atlanta Center
12:44AM 34.5797 -81.0367 336° Northwest 478 550 40,000  Level Atlanta Center
12:45AM 34.6983 -81.1056 334° Northwest 473 544 40,000  Level Atlanta Center
12:46AM 34.8189 -81.1747 335° Northwest 473 544 40,000  Level Atlanta Center
12:47AM 34.9417 -81.2439 335° Northwest 473 544 40,000  Level Atlanta Center
12:48AM 35.0578 -81.3136 334° Northwest 467 537 40,000  Level Atlanta Center
12:49AM 35.1889 -81.3881 335° Northwest 467 537 40,000  Level Atlanta Center
12:50AM 35.3094 -81.4581 335° Northwest 472 543 40,000  Level Atlanta Center
12:51AM 35.4275 -81.5283 334° Northwest 472 543 40,000  Level Atlanta Center
12:52AM 35.5439 -81.5986 334° Northwest 472 543 40,000  Level Atlanta Center
12:53AM 35.6619 -81.6694 334° Northwest 467 537 40,000  Level Atlanta Center
12:54AM 35.7653 -81.7303 334° Northwest 462 532 40,000  Level Atlanta Center
12:55AM 35.8833 -81.7961 336° Northwest 462 532 40,000  Level Atlanta Center
12:56AM 35.9972 -81.8675 333° Northwest 467 537 40,000  Level Atlanta Center
12:57AM 36.1133 -81.9336 335° Northwest 461 531 40,000  Level Atlanta Center
12:58AM 36.2314 -82.0078 333° Northwest 460 529 40,000  Level Atlanta Center
01:00AM 36.4761 -82.1664 332° Northwest 467 537 40,000  Level Indianapolis Center
01:01AM 36.5792 -82.2639 323° Northwest 466 536 40,000  Level Indianapolis Center
01:02AM 36.6839 -82.3608 323° Northwest 470 541 40,000  Level Indianapolis Center
01:03AM 36.7886 -82.4581 323° Northwest 471 542 40,000  Level Indianapolis Center
01:04AM 36.8933 -82.5550 323° Northwest 472 543 40,000  Level Indianapolis Center
01:05AM 37.0153 -82.6689 323° Northwest 474 545 40,000  Level Indianapolis Center
01:06AM 37.1194 -82.7683 323° Northwest 477 549 40,000  Level Indianapolis Center
01:07AM 37.2244 -82.8681 323° Northwest 479 551 40,000  Level Indianapolis Center
01:08AM 37.3289 -82.9686 323° Northwest 476 548 40,000  Level Indianapolis Center
01:09AM 37.4350 -83.0697 323° Northwest 478 550 40,000 -240 Level Indianapolis Center
01:10AM 37.5408 -83.1706 323° Northwest 479 551 39,600 -1,560 Descending Indianapolis Center
01:11AM 37.6464 -83.2700 323° Northwest 476 548 36,900 -3,000 Descending Indianapolis Center
01:12AM 37.7517 -83.3714 323° Northwest 477 549 33,600 -3,300 Descending Indianapolis Center
01:13AM 37.8578 -83.4733 323° Northwest 479 551 30,300 -3,000 Descending Indianapolis Center
01:14AM 37.9608 -83.5736 323° Northwest 471 542 27,600 -3,300 Descending Indianapolis Center
01:15AM 38.0639 -83.6739 323° Northwest 467 537 23,800 -3,240 Descending Indianapolis Center
01:16AM 38.1628 -83.7703 323° Northwest 455 524 21,100 -2,640 Descending Indianapolis Center
01:17AM 38.2567 -83.8600 323° Northwest 423 487 18,500 -2,520 Descending Indianapolis Center
01:18AM 38.3431 -83.9456 322° Northwest 396 456 16,100 -2,400 Descending Indianapolis Center
01:19AM 38.4275 -84.0286 322° Northwest 384 442 13,700 -2,340 Descending Indianapolis Center
01:20AM 38.5075 -84.1119 321° Northwest 373 429 11,400 -1,380 Descending Indianapolis Center
01:21AM 38.5719 -84.2150 309° West 372 428 11,000 -240 Descending Indianapolis Center
01:22AM 38.6339 -84.3147 309° West 360 414 11,000 -60 Level Indianapolis Center
01:23AM 38.6986 -84.4144 310° West 336 387 10,900 -600 Descending Indianapolis Center
01:24AM 38.7525 -84.5017 308° West 310 357 9,900 -1,200 Descending Indianapolis Center
01:25AM 38.7994 -84.5747 310° West 288 331 8,600 -1,560 Descending Indianapolis Center
01:26AM 38.8506 -84.6550 309° West 290 334 6,800 -1,680 Descending Indianapolis Center
01:27AM 38.9000 -84.7333 309° West 290 334 5,400 -960 Descending Cincinnati TRACON
01:28AM 38.9500 -84.8000 314° West 242 278 5,000 -480 Descending Cincinnati TRACON
01:29AM 38.9833 -84.8667 303° West 201 231 4,500 -780 Descending Cincinnati TRACON
01:30AM 39.0333 -84.9000 333° Northwest 200 230 3,500 -600 Descending Cincinnati TRACON
01:31AM 39.0500 -84.8500 67° East 153 176 3,400 -480 Descending Cincinnati TRACON
01:32AM 39.0500 -84.8000 90° East 153 176 2,700 -780 Descending Cincinnati TRACON
01:33AM 39.0500 -84.7500 90° East 139 160 1,900 -780 Descending Cincinnati TRACON